TimeMDT,TemperatureF,Dew PointF,Humidity,Sea Level PressureIn,VisibilityMPH,Wind Direction,Wind SpeedMPH,Gust SpeedMPH,PrecipitationIn,Events,Conditions,WindDirDegrees,DateUTC
12:53 AM,46.9,39.0,74,29.77,10.0,WNW,9.2,-,N/A,,Clear,300,2013-10-09 06:53:00
1:53 AM,48.0,37.9,68,29.81,10.0,NW,16.1,-,N/A,,Scattered Clouds,320,2013-10-09 07:53:00
2:53 AM,46.0,36.0,68,29.83,10.0,NNW,15.0,-,N/A,,Partly Cloudy,330,2013-10-09 08:53:00
3:53 AM,44.1,35.1,71,29.86,10.0,NW,12.7,-,N/A,,Clear,320,2013-10-09 09:53:00
4:53 AM,42.1,35.1,76,29.88,10.0,NW,10.4,-,N/A,,Clear,310,2013-10-09 10:53:00
5:53 AM,42.1,36.0,79,29.91,10.0,NW,9.2,-,N/A,,Clear,310,2013-10-09 11:53:00
6:53 AM,39.9,35.1,83,29.94,10.0,NW,4.6,-,N/A,,Clear,320,2013-10-09 12:53:00
7:53 AM,39.0,35.1,86,29.97,10.0,NW,3.5,-,N/A,,Clear,310,2013-10-09 13:53:00
8:53 AM,42.1,36.0,79,29.99,10.0,Calm,Calm,-,N/A,,Clear,0,2013-10-09 14:53:00
9:53 AM,44.1,36.0,73,30.01,10.0,NNW,3.5,-,N/A,,Clear,330,2013-10-09 15:53:00
10:53 AM,48.0,35.1,61,30.00,10.0,Calm,Calm,-,N/A,,Scattered Clouds,0,2013-10-09 16:53:00
11:53 AM,53.1,37.0,55,29.99,10.0,East,8.1,-,N/A,,Clear,100,2013-10-09 17:53:00
12:53 PM,52.0,37.0,57,29.98,10.0,ESE,13.8,-,N/A,,Clear,120,2013-10-09 18:53:00
1:53 PM,54.0,36.0,51,29.96,10.0,ESE,12.7,-,N/A,,Partly Cloudy,120,2013-10-09 19:53:00
2:53 PM,52.0,35.1,53,29.98,10.0,SE,5.8,-,N/A,,Overcast,130,2013-10-09 20:53:00
3:53 PM,54.0,33.1,45,29.97,10.0,ENE,8.1,-,N/A,,Mostly Cloudy,70,2013-10-09 21:53:00
4:53 PM,52.0,32.0,47,29.98,10.0,East,10.4,-,N/A,,Clear,100,2013-10-09 22:53:00
5:53 PM,50.0,30.9,48,29.99,10.0,ESE,12.7,-,N/A,,Clear,110,2013-10-09 23:53:00
6:53 PM,45.0,33.1,63,30.00,10.0,SE,6.9,-,N/A,,Clear,140,2013-10-10 00:53:00
7:53 PM,42.1,35.1,76,30.01,10.0,East,8.1,-,N/A,,Clear,80,2013-10-10 01:53:00
8:53 PM,43.0,33.1,68,30.00,10.0,ESE,10.4,-,N/A,,Clear,120,2013-10-10 02:53:00
9:53 PM,43.0,32.0,65,29.99,10.0,ESE,6.9,-,N/A,,Clear,110,2013-10-10 03:53:00
10:53 PM,41.0,32.0,70,29.96,10.0,ESE,5.8,-,N/A,,Clear,110,2013-10-10 04:53:00
11:53 PM,39.0,32.0,76,29.92,10.0,ESE,4.6,-,N/A,,Partly Cloudy,110,2013-10-10 05:53:00